Time;durP1;ratioP1;P1;durP2;ratioP2;P2;SDS_P1;SDS_P2;PMS_P1;PMS_P2;Temp;Humidity;BMP_temperature;BMP_pressure;BME280_temperature;BME280_humidity;BME280_pressure;Samples;Min_cycle;Max_cycle;Signal;HPM_P1;HPM_P2
2024/03/15 00:01:15;;;;;;;8.52;6.75;;;;;;;11.63;100.00;100163.16;6224149;23;20024;-84
2024/03/15 00:03:44;;;;;;;7.68;5.40;;;;;;;11.63;100.00;100168.41;6220912;23;20083;-87
2024/03/15 00:06:13;;;;;;;7.20;5.40;;;;;;;11.62;100.00;100164.94;6196427;23;20024;-85
2024/03/15 00:08:40;;;;;;;10.50;6.75;;;;;;;11.61;100.00;100164.97;6197812;23;20025;-85
2024/03/15 00:11:07;;;;;;;7.25;5.03;;;;;;;11.56;100.00;100165.94;6222405;23;20107;-88
2024/03/15 00:13:41;;;;;;;9.00;6.80;;;;;;;11.54;100.00;100167.72;6195254;23;20070;-86
2024/03/15 00:16:11;;;;;;;6.75;6.00;;;;;;;11.53;100.00;100158.13;6221085;23;20048;-87
2024/03/15 00:18:39;;;;;;;8.95;6.70;;;;;;;11.52;100.00;100161.63;6196298;23;20073;-86
2024/03/15 00:21:10;;;;;;;9.85;6.00;;;;;;;11.54;100.00;100162.47;6199600;23;20021;-86
2024/03/15 00:23:37;;;;;;;10.13;5.70;;;;;;;11.52;100.00;100160.78;6219782;23;20024;-87
2024/03/15 00:26:11;;;;;;;9.32;6.07;;;;;;;11.49;100.00;100161.72;6222235;23;20024;-86
2024/03/15 00:28:41;;;;;;;7.93;5.55;;;;;;;11.49;100.00;100158.25;6195787;23;20028;-85
2024/03/15 00:31:11;;;;;;;8.93;5.50;;;;;;;11.50;100.00;100157.31;6223358;23;20351;-84
2024/03/15 00:33:43;;;;;;;7.05;5.45;;;;;;;11.51;100.00;100156.44;6196716;23;20458;-85
2024/03/15 00:36:13;;;;;;;9.40;6.32;;;;;;;11.50;100.00;100152.06;6194437;23;20025;-86
2024/03/15 00:38:43;;;;;;;6.88;5.82;;;;;;;11.52;100.00;100148.53;6219488;23;20447;-86
2024/03/15 00:41:13;;;;;;;6.15;5.63;;;;;;;11.50;100.00;100136.34;6196051;23;20108;-86
2024/03/15 00:43:40;;;;;;;8.20;5.60;;;;;;;11.49;100.00;100145.97;6222071;23;20044;-86
2024/03/15 00:46:09;;;;;;;8.07;5.93;;;;;;;11.50;100.00;100137.22;6198756;23;20035;-85
2024/03/15 00:48:47;;;;;;;6.57;5.95;;;;;;;11.53;100.00;100138.94;6199863;23;20024;-85
2024/03/15 00:51:21;;;;;;;8.93;6.20;;;;;;;11.54;100.00;100136.25;6201230;23;20035;-85
2024/03/15 00:53:50;;;;;;;7.70;6.43;;;;;;;11.55;100.00;100132.75;6224128;23;20021;-86
2024/03/15 00:56:33;;;;;;;9.07;6.78;;;;;;;11.55;100.00;100131.88;6197501;23;20127;-85
2024/03/15 00:59:04;;;;;;;8.00;6.38;;;;;;;11.55;100.00;100132.75;6226025;23;20080;-87
2024/03/15 01:01:32;;;;;;;8.82;6.53;;;;;;;11.54;100.00;100136.25;6198111;23;20024;-85
2024/03/15 01:04:15;;;;;;;8.43;5.88;;;;;;;11.55;100.00;100130.13;6225218;23;20020;-86
2024/03/15 01:06:42;;;;;;;7.20;6.38;;;;;;;11.55;100.00;100122.28;6224915;23;20024;-84
2024/03/15 01:09:10;;;;;;;9.65;6.40;;;;;;;11.55;100.00;100119.66;6200121;23;20043;-85
2024/03/15 01:11:46;;;;;;;7.05;5.57;;;;;;;11.56;100.00;100117.88;6222806;23;20024;-85
2024/03/15 01:14:23;;;;;;;9.48;6.03;;;;;;;11.55;100.00;100111.78;6223374;23;20013;-84
2024/03/15 01:16:51;;;;;;;7.05;6.20;;;;;;;11.57;100.00;100117.00;6198608;23;20051;-85
2024/03/15 01:19:20;;;;;;;7.15;6.32;;;;;;;11.58;100.00;100111.72;6197228;23;20024;-86
2024/03/15 01:21:52;;;;;;;8.23;6.15;;;;;;;11.61;100.00;100110.78;6196855;23;20016;-86
2024/03/15 01:24:25;;;;;;;8.73;6.07;;;;;;;11.63;100.00;100105.50;6218884;23;20016;-85
2024/03/15 01:26:52;;;;;;;10.13;6.88;;;;;;;11.67;100.00;100109.81;6196963;23;20021;-87
2024/03/15 01:29:22;;;;;;;9.63;6.80;;;;;;;11.70;100.00;100104.47;6198183;23;20095;-85
2024/03/15 01:31:56;;;;;;;8.45;7.55;;;;;;;11.74;100.00;100100.88;6198181;23;20083;-86
2024/03/15 01:34:25;;;;;;;8.05;6.63;;;;;;;11.77;100.00;100111.28;6198282;23;20850;-86
2024/03/15 01:36:52;;;;;;;7.72;6.90;;;;;;;11.80;100.00;100099.88;6198589;23;20025;-84
2024/03/15 01:39:20;;;;;;;8.15;6.80;;;;;;;11.82;100.00;100103.34;6194346;23;20042;-87
2024/03/15 01:41:49;;;;;;;8.95;6.93;;;;;;;11.83;100.00;100100.66;6194934;23;20111;-83
2024/03/15 01:44:16;;;;;;;9.38;6.45;;;;;;;11.85;100.00;100108.50;6218723;23;20465;-85
2024/03/15 01:46:45;;;;;;;11.27;6.68;;;;;;;11.85;100.00;100105.88;6196065;23;20031;-85
2024/03/15 01:49:28;;;;;;;7.28;6.57;;;;;;;11.88;100.00;100103.19;6201779;23;20024;-85
2024/03/15 01:52:05;;;;;;;11.43;7.18;;;;;;;11.89;100.00;100102.31;6203426;23;20112;-84
2024/03/15 01:54:32;;;;;;;8.00;7.07;;;;;;;11.89;100.00;100097.06;6195293;23;20047;-84
2024/03/15 01:56:59;;;;;;;7.55;6.85;;;;;;;11.88;100.00;100093.56;6222584;23;20004;-85
2024/03/15 01:59:28;;;;;;;8.13;7.32;;;;;;;11.85;100.00;100090.13;6198302;23;20043;-85
2024/03/15 02:02:05;;;;;;;8.10;7.30;;;;;;;11.83;100.00;100095.41;6194800;23;20032;-85
2024/03/15 02:04:33;;;;;;;14.32;7.43;;;;;;;11.83;100.00;100100.66;6219702;23;20031;-85
2024/03/15 02:06:59;;;;;;;11.63;7.22;;;;;;;11.84;100.00;100098.94;6221870;23;20035;-85
2024/03/15 02:09:28;;;;;;;8.50;6.68;;;;;;;11.80;100.00;100092.88;6221880;23;20040;-86
2024/03/15 02:11:59;;;;;;;7.40;6.70;;;;;;;11.78;100.00;100093.81;6220003;23;20339;-85
2024/03/15 02:14:29;;;;;;;7.75;6.20;;;;;;;11.76;100.00;100096.47;6194708;23;20031;-85
2024/03/15 02:16:58;;;;;;;7.13;6.35;;;;;;;11.77;100.00;100094.72;6195628;23;20024;-85
2024/03/15 02:19:32;;;;;;;9.55;6.93;;;;;;;11.75;100.00;100074.63;6196682;23;20027;-85
2024/03/15 02:22:01;;;;;;;7.75;6.93;;;;;;;11.74;100.00;100075.50;6221290;23;20027;-85
2024/03/15 02:24:29;;;;;;;9.18;7.10;;;;;;;11.73;100.00;100083.41;6221143;23;20139;-85
2024/03/15 02:26:56;;;;;;;8.32;6.53;;;;;;;11.71;100.00;100080.84;6194801;23;20020;-84
2024/03/15 02:29:25;;;;;;;7.10;6.40;;;;;;;11.72;100.00;100079.94;6219598;23;20069;-85
2024/03/15 02:31:52;;;;;;;8.32;6.85;;;;;;;11.72;100.00;100073.81;6218470;23;20031;-83
2024/03/15 02:34:22;;;;;;;7.68;6.25;;;;;;;11.70;100.00;100073.00;6218483;23;20017;-85
2024/03/15 02:36:49;;;;;;;8.10;6.60;;;;;;;11.69;100.00;100068.66;6195533;23;20036;-84
2024/03/15 02:39:24;;;;;;;8.55;6.53;;;;;;;11.67;100.00;100068.69;6219300;23;20020;-87
2024/03/15 02:41:54;;;;;;;8.38;6.35;;;;;;;11.65;100.00;100074.88;6195465;23;20051;-84
2024/03/15 02:44:24;;;;;;;7.68;6.88;;;;;;;11.66;100.00;100071.38;6194411;23;20020;-84
2024/03/15 02:46:51;;;;;;;7.53;5.57;;;;;;;11.65;100.00;100061.75;6219569;23;20043;-87
2024/03/15 02:49:21;;;;;;;7.28;6.43;;;;;;;11.60;100.00;100061.84;6195103;23;20451;-85
2024/03/15 02:51:51;;;;;;;8.75;6.80;;;;;;;11.59;100.00;100057.53;6192728;23;20067;-85
2024/03/15 02:54:20;;;;;;;7.63;6.83;;;;;;;11.56;100.00;100052.34;6194971;23;20018;-85
2024/03/15 02:56:47;;;;;;;9.00;7.38;;;;;;;11.56;100.00;100060.22;6192933;23;20452;-85
2024/03/15 02:59:20;;;;;;;8.88;7.72;;;;;;;11.61;100.00;100055.72;6219022;23;20025;-83
2024/03/15 03:02:00;;;;;;;9.70;8.70;;;;;;;11.70;100.00;100050.25;6222489;23;20494;-84
2024/03/15 03:04:29;;;;;;;13.23;9.23;;;;;;;11.73;100.00;100051.94;6202621;23;20048;-86
2024/03/15 03:07:04;;;;;;;12.00;7.70;;;;;;;11.71;100.00;100041.50;6193592;23;20020;-85
2024/03/15 03:09:31;;;;;;;11.18;8.48;;;;;;;11.76;100.00;100046.66;6221743;23;20017;-85
2024/03/15 03:12:08;;;;;;;12.35;8.18;;;;;;;11.78;100.00;100042.22;6229521;23;20485;-87
2024/03/15 03:17:32;;;;;;;9.88;8.82;;;;;;;11.67;100.00;100039.00;6233631;23;20024;-84
2024/03/15 03:20:26;;;;;;;10.68;8.43;;;;;;;11.63;100.00;100039.94;6188548;23;20075;-85
2024/03/15 03:23:11;;;;;;;9.77;7.68;;;;;;;11.55;100.00;100048.00;6208675;23;20013;-86
2024/03/15 03:25:44;;;;;;;11.52;8.45;;;;;;;11.47;100.00;100050.81;6259565;23;20017;-85
2024/03/15 03:28:24;;;;;;;13.15;8.73;;;;;;;11.40;100.00;100057.06;6209891;23;20017;-85
2024/03/15 03:31:06;;;;;;;12.20;8.30;;;;;;;11.31;100.00;100049.41;6234142;23;20032;-85
2024/03/15 03:33:34;;;;;;;9.00;7.32;;;;;;;11.22;100.00;100048.72;6233071;23;20023;-85
2024/03/15 03:36:14;;;;;;;9.10;7.55;;;;;;;11.14;100.00;100053.25;6210042;23;20697;-86
2024/03/15 03:39:10;;;;;;;10.70;8.07;;;;;;;11.05;100.00;100050.81;6230200;23;20103;-85
2024/03/15 03:41:54;;;;;;;9.68;7.68;;;;;;;10.98;100.00;100050.09;6235853;23;20059;-87
2024/03/15 03:44:29;;;;;;;11.25;7.65;;;;;;;10.91;100.00;100044.13;6206777;23;20016;-86
2024/03/15 03:47:19;;;;;;;9.30;7.82;;;;;;;10.87;100.00;100047.69;6210618;23;20020;-87
2024/03/15 03:49:50;;;;;;;10.38;7.72;;;;;;;10.83;100.00;100046.00;6202835;23;20021;-86
2024/03/15 03:52:20;;;;;;;13.38;8.55;;;;;;;10.79;100.00;100053.97;6198052;23;20017;-86
2024/03/15 03:54:47;;;;;;;9.68;7.57;;;;;;;10.72;100.00;100054.09;6218992;23;20136;-84
2024/03/15 03:57:23;;;;;;;10.30;7.70;;;;;;;10.70;100.00;100057.63;6196008;23;20071;-85
2024/03/15 03:59:50;;;;;;;10.57;7.97;;;;;;;10.67;100.00;100062.94;6221245;23;20020;-84
2024/03/15 04:02:24;;;;;;;10.10;7.50;;;;;;;10.63;100.00;100062.13;6199090;23;20020;-85
2024/03/15 04:07:35;;;;;;;11.73;8.68;;;;;;;10.62;100.00;100068.22;6223743;23;20020;-83
2024/03/15 04:10:07;;;;;;;10.15;8.57;;;;;;;10.66;100.00;100063.81;6204331;23;20047;-85
2024/03/15 04:12:35;;;;;;;9.90;8.27;;;;;;;10.66;100.00;100061.19;6201235;23;20013;-85
2024/03/15 04:15:06;;;;;;;10.63;8.23;;;;;;;10.68;100.00;100056.81;6197862;23;20025;-86
2024/03/15 04:17:37;;;;;;;10.40;8.48;;;;;;;10.65;100.00;100062.06;6204121;23;20064;-84
2024/03/15 04:20:12;;;;;;;11.25;8.43;;;;;;;10.67;100.00;100069.00;6224769;23;20020;-85
2024/03/15 04:22:47;;;;;;;12.65;9.48;;;;;;;10.79;100.00;100065.28;6200093;23;20036;-84
2024/03/15 04:25:19;;;;;;;13.20;9.02;;;;;;;10.85;100.00;100073.03;6196772;23;20008;-88
2024/03/15 04:27:52;;;;;;;14.57;9.68;;;;;;;10.93;100.00;100051.94;6208787;23;20028;-84
2024/03/15 04:30:22;;;;;;;12.23;8.48;;;;;;;10.99;100.00;100049.19;6200726;23;20025;-86
2024/03/15 04:32:54;;;;;;;13.07;9.20;;;;;;;10.95;100.00;100047.53;6198324;23;20021;-86
2024/03/15 04:35:22;;;;;;;13.55;9.77;;;;;;;10.99;100.00;100054.44;6197598;23;20063;-85
2024/03/15 04:37:52;;;;;;;11.95;8.93;;;;;;;10.95;100.00;100052.78;6199910;23;20029;-85
2024/03/15 04:40:20;;;;;;;12.35;9.73;;;;;;;10.91;100.00;100043.25;6197209;23;20020;-87
2024/03/15 04:42:47;;;;;;;12.55;9.57;;;;;;;11.00;100.00;100039.56;6198537;23;20216;-84
2024/03/15 04:45:17;;;;;;;12.80;8.63;;;;;;;11.09;100.00;100044.63;6222714;23;20051;-84
2024/03/15 04:47:47;;;;;;;11.10;8.55;;;;;;;11.04;100.00;100047.34;6224507;23;20477;-85
2024/03/15 04:50:15;;;;;;;11.60;9.32;;;;;;;10.98;100.00;100038.75;6222569;23;20036;-85
2024/03/15 04:52:53;;;;;;;11.18;9.10;;;;;;;11.00;100.00;100035.22;6198142;23;20047;-85
2024/03/15 04:55:22;;;;;;;14.15;8.60;;;;;;;11.04;100.00;100042.13;6196675;23;20021;-84
2024/03/15 04:57:52;;;;;;;12.15;9.68;;;;;;;11.09;100.00;100044.63;6197748;23;20048;-86
2024/03/15 05:00:21;;;;;;;13.57;8.63;;;;;;;11.06;100.00;100037.69;6198617;23;20043;-86
2024/03/15 05:02:53;;;;;;;13.15;8.57;;;;;;;11.04;100.00;100034.25;6196200;23;20051;-85
2024/03/15 05:05:23;;;;;;;10.98;8.63;;;;;;;11.00;100.00;100029.97;6196489;23;20111;-87
2024/03/15 05:07:50;;;;;;;19.52;9.32;;;;;;;10.95;100.00;100033.56;6224285;23;20021;-86
2024/03/15 05:10:21;;;;;;;11.95;8.25;;;;;;;10.91;100.00;100023.16;6222716;23;20394;-84
2024/03/15 05:12:57;;;;;;;11.73;8.98;;;;;;;10.87;100.00;100021.50;6196741;23;20024;-84
2024/03/15 05:15:26;;;;;;;13.20;9.18;;;;;;;10.83;100.00;100026.81;6214871;23;20028;-85
2024/03/15 05:17:53;;;;;;;12.90;8.70;;;;;;;10.77;100.00;100025.22;6191863;23;20096;-85
2024/03/15 05:20:21;;;;;;;11.13;8.57;;;;;;;10.74;100.00;100031.38;6194260;23;20071;-87
2024/03/15 05:22:49;;;;;;;13.80;9.68;;;;;;;10.66;100.00;100024.53;6220189;23;20023;-84
2024/03/15 05:25:16;;;;;;;11.80;8.95;;;;;;;10.64;100.00;100023.69;6190802;23;20429;-85
2024/03/15 05:27:43;;;;;;;11.60;8.27;;;;;;;10.62;100.00;100036.81;6167053;23;20020;-83
2024/03/15 05:30:11;;;;;;;13.80;8.95;;;;;;;10.62;100.00;100030.75;6215080;23;20028;-83
2024/03/15 05:32:41;;;;;;;10.13;8.30;;;;;;;10.63;100.00;100029.84;6189664;23;20102;-84
2024/03/15 05:35:08;;;;;;;15.38;10.43;;;;;;;10.59;100.00;100032.50;6191410;23;20020;-85
2024/03/15 05:37:35;;;;;;;11.15;8.32;;;;;;;10.61;100.00;100042.09;6219361;23;20354;-85
2024/03/15 05:40:06;;;;;;;14.30;8.82;;;;;;;10.62;100.00;100028.97;6196478;23;20020;-85
2024/03/15 05:42:48;;;;;;;10.70;9.02;;;;;;;10.66;100.00;100032.41;6206446;23;20314;-86
2024/03/15 05:45:26;;;;;;;10.50;8.15;;;;;;;10.68;100.00;100038.47;6207924;23;20027;-84
2024/03/15 05:48:08;;;;;;;13.00;8.88;;;;;;;10.67;100.00;100029.75;6204299;23;20008;-85
2024/03/15 05:50:37;;;;;;;9.98;8.18;;;;;;;10.68;100.00;100036.72;6196961;23;20050;-85
2024/03/15 05:53:08;;;;;;;9.95;8.60;;;;;;;10.68;100.00;100038.47;6194457;23;20020;-85
2024/03/15 05:55:34;;;;;;;8.65;7.78;;;;;;;10.70;100.00;100036.69;6194982;23;20047;-86
2024/03/15 05:58:04;;;;;;;9.48;8.30;;;;;;;10.74;100.00;100046.19;6198816;23;20021;-85
2024/03/15 06:00:33;;;;;;;12.40;8.40;;;;;;;10.78;100.00;100045.25;6224339;23;20043;-84
2024/03/15 06:03:08;;;;;;;11.45;8.55;;;;;;;10.79;100.00;100040.88;6202449;23;20087;-86
2024/03/15 06:05:40;;;;;;;10.25;7.82;;;;;;;10.84;100.00;100049.50;6201141;23;20025;-86
2024/03/15 06:08:10;;;;;;;14.35;9.23;;;;;;;10.85;100.00;100044.22;6222335;23;20024;-84
2024/03/15 06:10:51;;;;;;;21.52;9.32;;;;;;;10.91;100.00;100051.09;6198826;23;20025;-85
2024/03/15 06:13:19;;;;;;;14.77;9.15;;;;;;;11.02;100.00;100054.38;6197505;23;20039;-82
2024/03/15 06:15:52;;;;;;;11.40;7.22;;;;;;;11.10;100.00;100051.59;6219192;23;20016;-86
2024/03/15 06:18:19;;;;;;;9.63;8.45;;;;;;;11.13;100.00;100045.44;6194823;23;20047;-85
2024/03/15 06:20:52;;;;;;;13.88;8.52;;;;;;;11.23;100.00;100041.72;6220296;23;20048;-85
2024/03/15 06:23:20;;;;;;;12.63;8.55;;;;;;;11.24;100.00;100038.22;6197549;23;20488;-86
2024/03/15 06:25:56;;;;;;;10.93;7.95;;;;;;;11.30;100.00;100037.22;6198478;23;20017;-83
2024/03/15 06:28:25;;;;;;;11.02;8.57;;;;;;;11.35;100.00;100043.22;6201481;23;20021;-85
2024/03/15 06:30:55;;;;;;;9.25;7.45;;;;;;;11.39;100.00;100037.00;6196211;23;20749;-85
2024/03/15 06:33:28;;;;;;;10.95;8.70;;;;;;;11.47;100.00;100032.47;6195877;23;20013;-83
2024/03/15 06:36:00;;;;;;;9.02;7.18;;;;;;;11.68;100.00;100032.84;6197566;23;20339;-83
2024/03/15 06:38:40;;;;;;;10.85;7.47;;;;;;;11.81;100.00;100041.28;6195835;23;20458;-84
2024/03/15 06:41:14;;;;;;;11.57;7.70;;;;;;;12.09;100.00;100036.25;6196690;23;20031;-84
2024/03/15 06:43:47;;;;;;;12.55;7.95;;;;;;;12.20;100.00;100034.25;6196592;23;20043;-85
2024/03/15 06:46:24;;;;;;;9.88;7.47;;;;;;;12.45;100.00;100037.97;6199584;23;20031;-84
2024/03/15 06:48:59;;;;;;;12.60;7.00;;;;;;;12.62;100.00;100041.03;6223309;23;20027;-85
2024/03/15 06:54:27;;;;;;;9.52;7.20;;;;;;;13.40;96.54;100034.41;6213844;23;20016;-86
2024/03/15 06:56:58;;;;;;;13.73;8.60;;;;;;;13.70;93.27;100039.63;6228177;23;20118;-85
2024/03/15 06:59:32;;;;;;;10.20;6.60;;;;;;;14.33;87.24;100034.94;6225211;23;20031;-84
2024/03/15 07:02:06;;;;;;;10.70;6.65;;;;;;;15.11;80.93;100035.69;6198911;23;20025;-88
2024/03/15 07:04:33;;;;;;;;;;;;;;;15.51;78.11;100049.13;6189911;23;20031;-85
2024/03/15 07:07:06;;;;;;;10.70;6.22;;;;;;;14.66;80.36;100041.75;6202728;23;19948;-83
2024/03/15 07:09:33;;;;;;;8.57;5.93;;;;;;;14.27;84.19;100036.91;6201668;23;20025;-84
2024/03/15 07:12:02;;;;;;;12.00;6.68;;;;;;;13.67;86.91;100037.09;6202296;23;20020;-86
2024/03/15 07:14:32;;;;;;;10.63;6.30;;;;;;;13.45;89.14;100036.91;6203527;23;20025;-85
2024/03/15 07:17:01;;;;;;;6.40;5.50;;;;;;;13.34;90.18;100047.75;6204946;23;20009;-85
2024/03/15 07:19:32;;;;;;;8.02;6.25;;;;;;;13.31;90.69;100043.44;6204767;23;20020;-85
2024/03/15 07:22:05;;;;;;;10.20;5.63;;;;;;;13.31;90.45;100051.31;6203536;23;20031;-84
2024/03/15 07:24:35;;;;;;;7.57;5.80;;;;;;;13.27;90.31;100048.81;6204729;23;20076;-85
2024/03/15 07:27:06;;;;;;;7.70;5.60;;;;;;;13.14;91.41;100046.56;6231789;23;20000;-87
2024/03/15 07:29:39;;;;;;;7.47;6.50;;;;;;;13.07;91.95;100055.53;6230347;23;20031;-86
2024/03/15 07:32:27;;;;;;;8.75;5.65;;;;;;;12.96;92.64;100063.72;6229630;23;20023;-85
2024/03/15 07:35:09;;;;;;;7.10;6.18;;;;;;;12.91;93.27;100062.97;6227781;23;20512;-83
2024/03/15 07:40:37;;;;;;;8.75;6.00;;;;;;;12.84;94.16;100057.03;6234521;23;20024;-84
2024/03/15 07:43:06;;;;;;;8.90;6.80;;;;;;;12.88;94.06;100068.31;6230800;23;20043;-86
2024/03/15 07:48:31;;;;;;;;;;;;;;;13.00;92.97;100069.75;6207527;23;20017;-85
2024/03/15 07:51:05;;;;;;;8.95;7.03;;;;;;;13.06;92.64;100066.94;6232864;23;19916;-85
2024/03/15 08:20:15;;;;;;;11.45;6.50;;;;;;;13.66;88.61;100078.34;555772;23;20291;-86
2024/03/15 08:22:42;;;;;;;8.65;6.57;;;;;;;13.92;86.95;100083.69;5058968;23;20050;-88
2024/03/15 08:25:10;;;;;;;8.27;7.03;;;;;;;13.96;86.28;100074.78;5007718;28;20106;-88
2024/03/15 08:27:41;;;;;;;7.85;5.85;;;;;;;14.22;84.47;100082.69;5009291;28;20110;-87
2024/03/15 08:30:12;;;;;;;11.52;5.57;;;;;;;14.74;82.04;100078.34;4992739;28;20035;-87
2024/03/15 08:32:40;;;;;;;7.22;5.85;;;;;;;14.83;80.67;100081.50;4996777;28;20110;-90
2024/03/15 08:35:13;;;;;;;6.90;5.75;;;;;;;15.17;79.39;100076.78;5008880;28;20054;-90
2024/03/15 08:37:46;;;;;;;7.60;5.72;;;;;;;15.47;76.44;100072.09;4991059;28;20082;-87
2024/03/15 08:40:29;;;;;;;7.10;5.63;;;;;;;15.41;76.36;100074.13;5008155;28;20057;-90
2024/03/15 08:42:58;;;;;;;6.25;5.28;;;;;;;15.51;75.83;100086.03;4996120;28;20141;-87
2024/03/15 08:45:25;;;;;;;5.97;5.35;;;;;;;15.30;77.20;100085.94;5007454;28;20054;-89
2024/03/15 08:47:58;;;;;;;8.25;5.03;;;;;;;14.89;78.46;100085.72;4991578;28;20106;-89
2024/03/15 08:50:26;;;;;;;8.43;5.25;;;;;;;15.09;77.96;100089.41;4977690;28;20061;-89
2024/03/15 08:52:53;;;;;;;8.80;5.65;;;;;;;14.87;78.88;100105.97;4988830;28;20074;-89
2024/03/15 08:55:31;;;;;;;11.38;9.20;;;;;;;14.81;79.56;100103.53;4977937;28;20097;-89
2024/03/15 08:57:58;;;;;;;8.50;5.78;;;;;;;14.70;80.46;100103.94;4997327;28;20550;-89
2024/03/15 09:00:26;;;;;;;6.40;5.38;;;;;;;14.59;81.10;100091.13;4993227;28;20054;-89
2024/03/15 09:02:55;;;;;;;6.20;4.82;;;;;;;14.55;81.38;100097.41;4982523;28;20046;-90
2024/03/15 09:05:23;;;;;;;5.80;4.97;;;;;;;14.42;82.11;100098.72;4994046;28;20089;-88
2024/03/15 09:07:53;;;;;;;6.50;4.80;;;;;;;14.22;83.09;100106.38;4984457;28;20122;-90
2024/03/15 09:23:14;;;;;;;7.65;5.57;;;;;;;13.78;88.40;100107.78;4946440;28;20044;-90
2024/03/15 09:25:45;;;;;;;10.77;4.90;;;;;;;13.75;88.54;100111.38;5000223;28;20379;-88
2024/03/15 09:28:19;;;;;;;12.00;5.75;;;;;;;13.75;88.57;100114.00;4954769;28;20046;-88
2024/03/15 09:30:49;;;;;;;8.13;5.93;;;;;;;13.74;89.41;100112.31;4988042;28;20109;-87
2024/03/15 09:33:38;;;;;;;8.38;5.88;;;;;;;13.73;89.29;100115.84;4974295;28;20050;-88
2024/03/15 09:38:54;;;;;;;11.57;6.18;;;;;;;13.73;90.58;100111.41;4964231;28;20047;-89
2024/03/15 09:41:31;;;;;;;8.57;6.00;;;;;;;13.82;90.82;100117.28;4940829;28;20557;-85
2024/03/15 09:44:05;;;;;;;12.65;6.78;;;;;;;13.84;91.86;100121.59;4959123;28;20133;-89
2024/03/15 09:46:32;;;;;;;7.53;5.05;;;;;;;13.80;93.24;100113.88;4943192;28;20089;-89
2024/03/15 09:49:01;;;;;;;7.47;5.25;;;;;;;13.73;94.83;100129.00;4964351;28;20031;-88
2024/03/15 09:51:31;;;;;;;7.47;4.97;;;;;;;13.66;95.65;100130.94;4975232;28;20055;-87
2024/03/15 09:54:01;;;;;;;6.63;4.22;;;;;;;13.63;96.81;100125.75;4967119;28;20055;-85
2024/03/15 09:56:29;;;;;;;6.55;4.57;;;;;;;13.61;97.40;100129.34;4950654;28;20047;-87
2024/03/15 09:58:59;;;;;;;6.90;5.40;;;;;;;13.47;100.00;100120.09;4977126;28;20031;-86
2024/03/15 10:01:26;;;;;;;4.78;4.38;;;;;;;13.44;100.00;100135.09;4947216;28;20043;-87
2024/03/15 10:03:53;;;;;;;10.07;5.38;;;;;;;13.43;100.00;100125.47;4976222;28;20055;-86
2024/03/15 10:06:25;;;;;;;5.80;5.18;;;;;;;13.38;100.00;100131.75;4980673;28;20035;-87
2024/03/15 10:08:53;;;;;;;6.22;5.30;;;;;;;13.42;100.00;100129.03;5020463;23;20519;-83
2024/03/15 10:11:24;;;;;;;8.18;4.95;;;;;;;13.44;100.00;100140.34;4998375;28;20113;-84
2024/03/15 10:13:52;;;;;;;7.03;4.95;;;;;;;13.43;100.00;100136.88;4985384;28;20038;-83
2024/03/15 10:16:19;;;;;;;7.93;5.30;;;;;;;13.46;100.00;100135.94;4992241;28;20054;-83
2024/03/15 10:18:58;;;;;;;6.45;5.15;;;;;;;13.48;100.00;100139.34;4996279;28;20046;-85
2024/03/15 10:21:26;;;;;;;12.80;5.50;;;;;;;13.47;100.00;100138.50;5003744;28;20133;-85
2024/03/15 10:26:46;;;;;;;7.13;5.30;;;;;;;13.54;100.00;100141.81;4985527;28;20139;-84
2024/03/15 10:29:12;;;;;;;7.00;4.88;;;;;;;13.48;100.00;100142.88;4992228;28;20062;-83
2024/03/15 10:31:41;;;;;;;7.13;5.30;;;;;;;13.53;100.00;100147.97;5002029;28;20050;-86
2024/03/15 10:34:15;;;;;;;5.90;5.03;;;;;;;13.56;100.00;100147.91;5003567;28;20038;-84
2024/03/15 10:36:45;;;;;;;8.23;5.07;;;;;;;13.59;100.00;100146.94;4984408;28;20137;-84
2024/03/15 10:39:14;;;;;;;9.95;4.95;;;;;;;13.68;100.00;100149.31;4989972;28;20046;-83
2024/03/15 10:41:45;;;;;;;5.90;4.57;;;;;;;13.75;100.00;100147.34;4972754;28;20057;-84
2024/03/15 10:44:19;;;;;;;7.97;4.53;;;;;;;13.87;100.00;100139.06;5003596;28;20552;-85
2024/03/15 10:46:59;;;;;;;9.60;5.25;;;;;;;13.98;99.22;100144.03;4986627;28;20114;-84
2024/03/15 10:49:27;;;;;;;9.95;5.25;;;;;;;14.01;98.42;100138.66;4985765;28;20367;-83
2024/03/15 10:51:54;;;;;;;8.02;4.72;;;;;;;14.20;97.36;100136.31;4988217;28;20061;-86
2024/03/15 10:54:23;;;;;;;5.05;4.47;;;;;;;14.26;96.45;100141.34;5000459;28;20083;-84
2024/03/15 10:56:53;;;;;;;24.13;4.82;;;;;;;14.41;95.74;100140.00;4985592;28;20054;-84
2024/03/15 10:59:20;;;;;;;6.53;4.68;;;;;;;14.48;94.96;100136.22;4981133;28;20042;-84
2024/03/15 11:01:54;;;;;;;7.22;4.97;;;;;;;14.46;94.78;100138.06;4986612;28;20109;-84
2024/03/15 11:04:21;;;;;;;5.38;4.70;;;;;;;14.36;95.18;100140.13;4986502;28;20113;-83
2024/03/15 11:06:52;;;;;;;6.90;4.53;;;;;;;14.29;95.69;100143.91;5005379;28;20045;-84
2024/03/15 11:09:33;;;;;;;10.73;4.93;;;;;;;14.29;95.49;100135.13;5004719;28;20054;-84
2024/03/15 11:12:06;;;;;;;6.68;4.57;;;;;;;14.36;95.02;100134.88;4969347;28;20050;-86
2024/03/15 11:14:34;;;;;;;5.47;4.38;;;;;;;14.45;94.63;100133.72;4999955;28;20042;-83
2024/03/15 11:17:17;;;;;;;9.68;4.57;;;;;;;14.51;93.67;100136.16;4984709;28;20051;-86
2024/03/15 11:19:51;;;;;;;8.75;6.28;;;;;;;14.58;93.19;100128.91;5002163;28;20279;-85
2024/03/15 11:22:19;;;;;;;4.90;3.97;;;;;;;14.51;93.55;100133.50;4988394;28;20022;-84
2024/03/15 11:24:55;;;;;;;6.13;4.60;;;;;;;14.51;93.56;100130.88;4988840;28;20047;-85
2024/03/15 11:27:24;;;;;;;9.50;5.15;;;;;;;14.64;92.83;100133.13;4972382;28;20160;-84
2024/03/15 11:29:58;;;;;;;7.57;4.38;;;;;;;14.79;92.38;100122.06;4987264;28;20062;-83
2024/03/15 11:32:26;;;;;;;6.35;5.57;;;;;;;14.83;91.98;100125.44;4988298;28;20046;-84
2024/03/15 11:34:56;;;;;;;5.25;4.30;;;;;;;14.72;91.35;100128.47;4996102;28;20037;-84
2024/03/15 11:37:23;;;;;;;3.92;3.53;;;;;;;14.71;91.28;100126.75;4986182;28;20073;-85
2024/03/15 11:40:06;;;;;;;6.07;4.43;;;;;;;14.76;91.28;100123.94;4987144;28;20096;-85
2024/03/15 11:42:33;;;;;;;7.85;5.43;;;;;;;14.76;91.01;100124.81;4972202;28;20046;-84
2024/03/15 11:45:07;;;;;;;5.15;4.00;;;;;;;14.91;90.58;100126.03;4978732;28;20057;-84
2024/03/15 11:47:34;;;;;;;;;;;;;;;15.20;88.38;100129.38;4984129;28;20050;-85
2024/03/15 11:50:04;;;;;;;8.27;4.47;;;;;;;15.19;87.15;100119.78;5003520;28;19945;-86
2024/03/15 11:52:31;;;;;;;4.53;3.83;;;;;;;15.17;86.56;100119.81;4984465;28;20038;-83
2024/03/15 11:55:03;;;;;;;5.90;3.92;;;;;;;15.25;86.31;100118.69;4991513;28;20047;-84
2024/03/15 11:57:35;;;;;;;5.67;4.53;;;;;;;15.15;86.82;100120.81;5004351;28;20133;-84
2024/03/15 12:00:26;;;;;;;4.55;4.00;;;;;;;15.16;86.87;100115.47;5009520;28;20293;-84
2024/03/15 12:02:57;;;;;;;;;;;;;;;15.24;86.75;100106.41;5000340;28;20124;-85
2024/03/15 12:05:51;;;;;;;5.82;4.10;;;;;;;15.10;87.51;100120.13;4989159;28;19929;-85
2024/03/15 12:08:38;;;;;;;4.97;4.15;;;;;;;15.20;87.29;100119.72;4993070;28;20069;-83
2024/03/15 12:11:23;;;;;;;17.10;4.32;;;;;;;15.11;87.32;100125.34;4992980;28;20050;-84
2024/03/15 12:13:57;;;;;;;4.65;4.05;;;;;;;15.08;87.06;100116.66;4995309;28;20042;-84
2024/03/15 12:20:16;;;;;;;4.63;4.30;;;;;;;16.45;79.60;100113.13;4985160;28;20042;-84
2024/03/15 12:22:50;;;;;;;5.88;4.65;;;;;;;17.62;74.67;100109.75;4981942;28;20043;-83
2024/03/15 12:25:22;;;;;;;4.22;3.85;;;;;;;17.84;72.60;100120.19;4989090;28;20050;-84
2024/03/15 12:27:50;;;;;;;3.53;3.25;;;;;;;17.37;72.11;100108.25;4985583;28;20030;-83
2024/03/15 12:30:25;;;;;;;3.42;3.00;;;;;;;17.34;71.23;100113.69;4981552;28;20050;-84
2024/03/15 12:33:07;;;;;;;4.60;2.92;;;;;;;17.19;72.05;100110.84;5000343;28;20046;-82
2024/03/15 12:35:37;;;;;;;3.92;2.85;;;;;;;16.91;72.81;100097.09;4980545;28;20047;-83
2024/03/15 12:38:24;;;;;;;4.00;3.17;;;;;;;16.90;72.64;100098.03;4987480;28;20042;-83
2024/03/15 12:44:11;;;;;;;7.90;3.25;;;;;;;16.36;74.51;100095.88;4989007;28;20066;-83
2024/03/15 12:46:45;;;;;;;5.10;3.10;;;;;;;16.46;74.65;100093.72;4983796;28;20042;-83